sensor_id;sensor_type;location;lat;lon;timestamp;temperature;humidity
14705;DHT22;7442;50.840;3.396;2024-03-23T00:54:22;22.70;56.70
14705;DHT22;7442;50.840;3.396;2024-03-23T00:56:52;22.70;56.70
14705;DHT22;7442;50.840;3.396;2024-03-23T00:59:22;22.70;56.70
14705;DHT22;7442;50.840;3.396;2024-03-23T01:01:54;22.70;56.70
14705;DHT22;7442;50.840;3.396;2024-03-23T01:04:24;22.70;56.70
14705;DHT22;7442;50.840;3.396;2024-03-23T01:06:54;22.70;56.70
14705;DHT22;7442;50.840;3.396;2024-03-23T01:09:24;22.70;56.70
14705;DHT22;7442;50.840;3.396;2024-03-23T01:11:54;22.70;56.70
14705;DHT22;7442;50.840;3.396;2024-03-23T01:14:24;22.60;56.70
14705;DHT22;7442;50.840;3.396;2024-03-23T01:16:56;22.60;56.70
14705;DHT22;7442;50.840;3.396;2024-03-23T01:19:26;22.60;56.70
14705;DHT22;7442;50.840;3.396;2024-03-23T01:21:56;22.70;56.70
14705;DHT22;7442;50.840;3.396;2024-03-23T01:24:27;22.60;56.70
14705;DHT22;7442;50.840;3.396;2024-03-23T01:26:57;22.60;56.70
14705;DHT22;7442;50.840;3.396;2024-03-23T01:29:27;22.60;56.70
14705;DHT22;7442;50.840;3.396;2024-03-23T01:31:57;22.60;56.80
14705;DHT22;7442;50.840;3.396;2024-03-23T01:34:27;22.60;56.80
14705;DHT22;7442;50.840;3.396;2024-03-23T01:36:57;22.60;56.80
14705;DHT22;7442;50.840;3.396;2024-03-23T01:39:27;22.60;56.90
14705;DHT22;7442;50.840;3.396;2024-03-23T01:41:57;22.50;56.80
14705;DHT22;7442;50.840;3.396;2024-03-23T01:44:29;22.50;57.50
14705;DHT22;7442;50.840;3.396;2024-03-23T01:46:59;22.50;56.90
14705;DHT22;7442;50.840;3.396;2024-03-23T01:49:29;22.50;56.90
14705;DHT22;7442;50.840;3.396;2024-03-23T01:52:00;22.50;56.90
14705;DHT22;7442;50.840;3.396;2024-03-23T01:54:30;22.50;57.00
14705;DHT22;7442;50.840;3.396;2024-03-23T01:57:02;22.50;56.90
14705;DHT22;7442;50.840;3.396;2024-03-23T01:59:32;22.50;56.90
14705;DHT22;7442;50.840;3.396;2024-03-23T02:02:02;22.50;56.90
14705;DHT22;7442;50.840;3.396;2024-03-23T02:04:35;22.40;56.90
14705;DHT22;7442;50.840;3.396;2024-03-23T02:07:07;22.40;57.00
14705;DHT22;7442;50.840;3.396;2024-03-23T02:09:37;22.40;57.00
14705;DHT22;7442;50.840;3.396;2024-03-23T02:12:07;22.40;57.00
14705;DHT22;7442;50.840;3.396;2024-03-23T02:14:39;22.40;57.00
14705;DHT22;7442;50.840;3.396;2024-03-23T02:17:09;22.40;57.00
14705;DHT22;7442;50.840;3.396;2024-03-23T02:19:41;22.40;57.00
14705;DHT22;7442;50.840;3.396;2024-03-23T02:22:11;22.40;56.90
14705;DHT22;7442;50.840;3.396;2024-03-23T02:24:41;22.40;56.90
14705;DHT22;7442;50.840;3.396;2024-03-23T02:27:11;22.40;56.90
14705;DHT22;7442;50.840;3.396;2024-03-23T02:29:41;22.40;56.90
14705;DHT22;7442;50.840;3.396;2024-03-23T02:32:11;22.40;56.90
14705;DHT22;7442;50.840;3.396;2024-03-23T02:34:41;22.40;56.90
14705;DHT22;7442;50.840;3.396;2024-03-23T02:37:12;22.40;56.90
14705;DHT22;7442;50.840;3.396;2024-03-23T02:39:49;22.40;56.90
14705;DHT22;7442;50.840;3.396;2024-03-23T02:42:19;22.40;56.90
14705;DHT22;7442;50.840;3.396;2024-03-23T02:44:51;22.40;56.80
14705;DHT22;7442;50.840;3.396;2024-03-23T02:47:21;22.40;56.80
14705;DHT22;7442;50.840;3.396;2024-03-23T02:49:51;22.40;56.80
14705;DHT22;7442;50.840;3.396;2024-03-23T02:52:21;22.40;56.80
14705;DHT22;7442;50.840;3.396;2024-03-23T02:54:51;22.40;56.80
14705;DHT22;7442;50.840;3.396;2024-03-23T02:57:22;22.40;56.70
14705;DHT22;7442;50.840;3.396;2024-03-23T02:59:52;22.40;56.80
14705;DHT22;7442;50.840;3.396;2024-03-23T03:02:22;22.40;56.70
14705;DHT22;7442;50.840;3.396;2024-03-23T03:04:52;22.40;56.70
14705;DHT22;7442;50.840;3.396;2024-03-23T03:07:22;22.40;56.60
14705;DHT22;7442;50.840;3.396;2024-03-23T03:09:52;22.40;56.60
14705;DHT22;7442;50.840;3.396;2024-03-23T03:12:22;22.40;56.60
14705;DHT22;7442;50.840;3.396;2024-03-23T03:14:52;22.40;56.60
14705;DHT22;7442;50.840;3.396;2024-03-23T03:17:22;22.40;56.60
14705;DHT22;7442;50.840;3.396;2024-03-23T03:19:53;22.40;56.50
14705;DHT22;7442;50.840;3.396;2024-03-23T03:22:24;22.40;56.70
14705;DHT22;7442;50.840;3.396;2024-03-23T03:24:54;22.40;56.50
14705;DHT22;7442;50.840;3.396;2024-03-23T03:27:24;22.40;56.50
14705;DHT22;7442;50.840;3.396;2024-03-23T03:29:54;22.40;56.50
14705;DHT22;7442;50.840;3.396;2024-03-23T03:32:24;22.40;56.50
14705;DHT22;7442;50.840;3.396;2024-03-23T03:34:54;22.40;56.50
14705;DHT22;7442;50.840;3.396;2024-03-23T03:37:24;22.40;56.50
14705;DHT22;7442;50.840;3.396;2024-03-23T03:39:55;22.30;56.50
14705;DHT22;7442;50.840;3.396;2024-03-23T03:42:25;22.30;57.20
14705;DHT22;7442;50.840;3.396;2024-03-23T03:44:55;22.30;56.50
14705;DHT22;7442;50.840;3.396;2024-03-23T03:47:25;22.30;56.50
14705;DHT22;7442;50.840;3.396;2024-03-23T03:49:55;22.30;56.50
14705;DHT22;7442;50.840;3.396;2024-03-23T03:52:28;22.30;56.50
14705;DHT22;7442;50.840;3.396;2024-03-23T03:55:02;22.20;56.50
14705;DHT22;7442;50.840;3.396;2024-03-23T03:57:32;22.30;56.50
14705;DHT22;7442;50.840;3.396;2024-03-23T04:00:03;22.30;56.50
14705;DHT22;7442;50.840;3.396;2024-03-23T04:02:33;22.30;56.50
14705;DHT22;7442;50.840;3.396;2024-03-23T04:05:03;22.30;57.00
14705;DHT22;7442;50.840;3.396;2024-03-23T04:07:34;22.20;56.40
14705;DHT22;7442;50.840;3.396;2024-03-23T04:10:05;22.30;56.40
14705;DHT22;7442;50.840;3.396;2024-03-23T04:12:37;22.30;56.30
14705;DHT22;7442;50.840;3.396;2024-03-23T04:15:07;22.30;56.30
14705;DHT22;7442;50.840;3.396;2024-03-23T04:17:37;22.20;56.40
14705;DHT22;7442;50.840;3.396;2024-03-23T04:20:08;22.20;56.30
14705;DHT22;7442;50.840;3.396;2024-03-23T04:22:47;22.20;56.40
14705;DHT22;7442;50.840;3.396;2024-03-23T04:25:18;22.20;56.30
14705;DHT22;7442;50.840;3.396;2024-03-23T04:27:48;22.20;56.40
14705;DHT22;7442;50.840;3.396;2024-03-23T04:30:18;22.20;56.50
14705;DHT22;7442;50.840;3.396;2024-03-23T04:32:49;22.20;56.50
14705;DHT22;7442;50.840;3.396;2024-03-23T04:35:20;22.20;56.50
14705;DHT22;7442;50.840;3.396;2024-03-23T04:37:51;22.10;56.40
14705;DHT22;7442;50.840;3.396;2024-03-23T04:40:27;22.10;56.40
14705;DHT22;7442;50.840;3.396;2024-03-23T04:42:57;22.20;56.40
14705;DHT22;7442;50.840;3.396;2024-03-23T04:45:27;22.20;56.40
14705;DHT22;7442;50.840;3.396;2024-03-23T04:47:57;22.20;56.30
14705;DHT22;7442;50.840;3.396;2024-03-23T04:50:27;22.20;56.30
14705;DHT22;7442;50.840;3.396;2024-03-23T04:52:57;22.20;56.30
14705;DHT22;7442;50.840;3.396;2024-03-23T04:55:30;22.20;56.30
14705;DHT22;7442;50.840;3.396;2024-03-23T04:58:00;22.20;56.30
14705;DHT22;7442;50.840;3.396;2024-03-23T05:00:30;22.20;56.30
14705;DHT22;7442;50.840;3.396;2024-03-23T05:03:00;22.20;56.20
14705;DHT22;7442;50.840;3.396;2024-03-23T05:05:35;22.10;56.20
14705;DHT22;7442;50.840;3.396;2024-03-23T05:08:05;22.10;56.20
14705;DHT22;7442;50.840;3.396;2024-03-23T05:10:35;22.10;56.20
14705;DHT22;7442;50.840;3.396;2024-03-23T05:13:05;22.10;56.20
14705;DHT22;7442;50.840;3.396;2024-03-23T05:15:35;22.10;56.30
14705;DHT22;7442;50.840;3.396;2024-03-23T05:18:06;22.10;56.20
14705;DHT22;7442;50.840;3.396;2024-03-23T05:20:36;22.10;56.30
14705;DHT22;7442;50.840;3.396;2024-03-23T05:23:07;22.10;56.30
14705;DHT22;7442;50.840;3.396;2024-03-23T05:25:37;22.10;56.80
14705;DHT22;7442;50.840;3.396;2024-03-23T05:28:07;22.10;56.20
14705;DHT22;7442;50.840;3.396;2024-03-23T05:30:37;22.10;56.20
14705;DHT22;7442;50.840;3.396;2024-03-23T05:33:07;22.10;56.40
14705;DHT22;7442;50.840;3.396;2024-03-23T05:35:37;22.10;56.20
14705;DHT22;7442;50.840;3.396;2024-03-23T05:38:13;22.10;56.20
14705;DHT22;7442;50.840;3.396;2024-03-23T05:40:57;22.10;56.10
14705;DHT22;7442;50.840;3.396;2024-03-23T05:43:27;22.10;56.10
14705;DHT22;7442;50.840;3.396;2024-03-23T05:45:59;22.00;56.10
14705;DHT22;7442;50.840;3.396;2024-03-23T05:48:29;22.00;56.70
14705;DHT22;7442;50.840;3.396;2024-03-23T05:51:00;22.00;56.10
14705;DHT22;7442;50.840;3.396;2024-03-23T05:53:30;22.00;56.00
14705;DHT22;7442;50.840;3.396;2024-03-23T05:56:04;22.10;56.00
14705;DHT22;7442;50.840;3.396;2024-03-23T05:58:34;22.10;56.00
14705;DHT22;7442;50.840;3.396;2024-03-23T06:01:04;22.00;56.00
14705;DHT22;7442;50.840;3.396;2024-03-23T06:03:36;22.10;56.00
14705;DHT22;7442;50.840;3.396;2024-03-23T06:06:06;22.00;55.90
14705;DHT22;7442;50.840;3.396;2024-03-23T06:08:38;22.10;56.00
14705;DHT22;7442;50.840;3.396;2024-03-23T06:11:08;22.10;55.90
14705;DHT22;7442;50.840;3.396;2024-03-23T06:13:40;22.10;55.90
14705;DHT22;7442;50.840;3.396;2024-03-23T06:16:10;22.00;55.80
14705;DHT22;7442;50.840;3.396;2024-03-23T06:18:40;22.10;55.80
14705;DHT22;7442;50.840;3.396;2024-03-23T06:21:14;22.10;55.80
14705;DHT22;7442;50.840;3.396;2024-03-23T06:23:44;22.10;55.90
14705;DHT22;7442;50.840;3.396;2024-03-23T06:26:19;22.00;55.80
14705;DHT22;7442;50.840;3.396;2024-03-23T06:28:49;22.00;55.80
14705;DHT22;7442;50.840;3.396;2024-03-23T06:31:19;22.00;55.80
14705;DHT22;7442;50.840;3.396;2024-03-23T06:33:50;22.00;55.80
14705;DHT22;7442;50.840;3.396;2024-03-23T06:36:19;22.00;56.40
14705;DHT22;7442;50.840;3.396;2024-03-23T06:38:50;22.10;56.30
14705;DHT22;7442;50.840;3.396;2024-03-23T06:41:20;22.00;55.70
14705;DHT22;7442;50.840;3.396;2024-03-23T06:43:50;22.10;55.70
14705;DHT22;7442;50.840;3.396;2024-03-23T06:46:20;22.10;55.60
14705;DHT22;7442;50.840;3.396;2024-03-23T06:48:50;22.10;55.50
14705;DHT22;7442;50.840;3.396;2024-03-23T06:51:20;22.20;56.10
14705;DHT22;7442;50.840;3.396;2024-03-23T06:53:50;22.10;55.40
14705;DHT22;7442;50.840;3.396;2024-03-23T06:56:20;22.10;55.40
14705;DHT22;7442;50.840;3.396;2024-03-23T06:58:50;22.20;55.50
14705;DHT22;7442;50.840;3.396;2024-03-23T07:01:20;22.20;55.30
14705;DHT22;7442;50.840;3.396;2024-03-23T07:03:50;22.20;55.20
14705;DHT22;7442;50.840;3.396;2024-03-23T07:06:22;22.20;55.20
14705;DHT22;7442;50.840;3.396;2024-03-23T07:08:52;22.30;55.10
14705;DHT22;7442;50.840;3.396;2024-03-23T07:11:24;22.30;55.10
14705;DHT22;7442;50.840;3.396;2024-03-23T07:13:54;22.30;55.00
14705;DHT22;7442;50.840;3.396;2024-03-23T07:16:24;22.30;55.10
14705;DHT22;7442;50.840;3.396;2024-03-23T07:18:54;22.30;55.10
14705;DHT22;7442;50.840;3.396;2024-03-23T07:21:24;22.30;54.90
14705;DHT22;7442;50.840;3.396;2024-03-23T07:23:54;22.30;55.70
14705;DHT22;7442;50.840;3.396;2024-03-23T07:26:26;22.40;55.00
14705;DHT22;7442;50.840;3.396;2024-03-23T07:28:56;22.40;54.90
14705;DHT22;7442;50.840;3.396;2024-03-23T07:31:26;22.40;54.80
14705;DHT22;7442;50.840;3.396;2024-03-23T07:33:56;22.50;54.70
14705;DHT22;7442;50.840;3.396;2024-03-23T07:36:26;22.50;54.60
14705;DHT22;7442;50.840;3.396;2024-03-23T07:38:56;22.50;54.60
14705;DHT22;7442;50.840;3.396;2024-03-23T07:41:26;22.50;55.20
14705;DHT22;7442;50.840;3.396;2024-03-23T07:43:57;22.50;54.50
14705;DHT22;7442;50.840;3.396;2024-03-23T07:46:27;22.60;54.50
14705;DHT22;7442;50.840;3.396;2024-03-23T07:48:57;22.60;54.40
14705;DHT22;7442;50.840;3.396;2024-03-23T07:51:34;22.60;54.40
14705;DHT22;7442;50.840;3.396;2024-03-23T07:54:04;22.60;54.30
14705;DHT22;7442;50.840;3.396;2024-03-23T07:56:35;22.60;54.30
14705;DHT22;7442;50.840;3.396;2024-03-23T07:59:06;22.70;54.20
14705;DHT22;7442;50.840;3.396;2024-03-23T08:01:36;22.70;54.10
14705;DHT22;7442;50.840;3.396;2024-03-23T08:04:06;22.70;54.70
14705;DHT22;7442;50.840;3.396;2024-03-23T08:06:38;22.80;54.00
14705;DHT22;7442;50.840;3.396;2024-03-23T08:09:08;22.80;54.00
14705;DHT22;7442;50.840;3.396;2024-03-23T08:11:38;22.90;53.80
14705;DHT22;7442;50.840;3.396;2024-03-23T08:14:08;23.00;53.70
14705;DHT22;7442;50.840;3.396;2024-03-23T08:16:39;23.00;53.50
14705;DHT22;7442;50.840;3.396;2024-03-23T08:19:10;23.10;53.40
14705;DHT22;7442;50.840;3.396;2024-03-23T08:21:40;23.10;53.30
14705;DHT22;7442;50.840;3.396;2024-03-23T08:24:10;23.20;53.20
14705;DHT22;7442;50.840;3.396;2024-03-23T08:26:40;23.30;53.40
14705;DHT22;7442;50.840;3.396;2024-03-23T08:29:10;23.40;53.20
14705;DHT22;7442;50.840;3.396;2024-03-23T08:31:40;23.40;53.10
14705;DHT22;7442;50.840;3.396;2024-03-23T08:34:10;23.40;52.80
14705;DHT22;7442;50.840;3.396;2024-03-23T08:36:40;23.40;52.90
14705;DHT22;7442;50.840;3.396;2024-03-23T08:39:10;23.40;52.70
14705;DHT22;7442;50.840;3.396;2024-03-23T08:41:40;23.40;52.60
14705;DHT22;7442;50.840;3.396;2024-03-23T08:44:12;23.50;52.30
14705;DHT22;7442;50.840;3.396;2024-03-23T08:46:42;23.50;52.10
14705;DHT22;7442;50.840;3.396;2024-03-23T08:49:12;23.50;51.70
14705;DHT22;7442;50.840;3.396;2024-03-23T08:51:43;23.60;51.40
14705;DHT22;7442;50.840;3.396;2024-03-23T08:54:13;23.60;51.20
14705;DHT22;7442;50.840;3.396;2024-03-23T08:56:43;23.60;50.90
14705;DHT22;7442;50.840;3.396;2024-03-23T08:59:13;23.60;50.20
14705;DHT22;7442;50.840;3.396;2024-03-23T09:01:56;23.70;50.30
14705;DHT22;7442;50.840;3.396;2024-03-23T09:04:26;23.60;49.60
14705;DHT22;7442;50.840;3.396;2024-03-23T09:06:57;23.70;50.30
14705;DHT22;7442;50.840;3.396;2024-03-23T09:09:29;23.80;49.30
14705;DHT22;7442;50.840;3.396;2024-03-23T09:11:59;23.80;48.90
14705;DHT22;7442;50.840;3.396;2024-03-23T09:14:29;23.80;48.60
14705;DHT22;7442;50.840;3.396;2024-03-23T09:16:59;23.80;48.30
14705;DHT22;7442;50.840;3.396;2024-03-23T09:19:29;23.90;47.80
14705;DHT22;7442;50.840;3.396;2024-03-23T09:21:59;23.90;47.50
14705;DHT22;7442;50.840;3.396;2024-03-23T09:24:33;24.00;47.20
14705;DHT22;7442;50.840;3.396;2024-03-23T09:27:03;24.00;46.70
14705;DHT22;7442;50.840;3.396;2024-03-23T09:29:33;24.10;46.50
14705;DHT22;7442;50.840;3.396;2024-03-23T09:32:03;24.10;46.50
14705;DHT22;7442;50.840;3.396;2024-03-23T09:34:34;24.20;45.80
14705;DHT22;7442;50.840;3.396;2024-03-23T09:37:04;24.10;46.10
14705;DHT22;7442;50.840;3.396;2024-03-23T09:39:34;24.20;46.30
14705;DHT22;7442;50.840;3.396;2024-03-23T09:42:05;24.10;45.60
14705;DHT22;7442;50.840;3.396;2024-03-23T09:44:36;24.00;45.60
14705;DHT22;7442;50.840;3.396;2024-03-23T09:47:07;24.10;45.40
14705;DHT22;7442;50.840;3.396;2024-03-23T09:49:38;24.20;45.10
14705;DHT22;7442;50.840;3.396;2024-03-23T09:52:09;24.20;44.80
14705;DHT22;7442;50.840;3.396;2024-03-23T09:54:40;24.30;44.60
14705;DHT22;7442;50.840;3.396;2024-03-23T09:57:10;24.40;44.40
14705;DHT22;7442;50.840;3.396;2024-03-23T09:59:40;24.50;44.40
14705;DHT22;7442;50.840;3.396;2024-03-23T10:02:10;24.50;44.00
14705;DHT22;7442;50.840;3.396;2024-03-23T10:04:42;24.50;43.80
14705;DHT22;7442;50.840;3.396;2024-03-23T10:07:15;24.50;44.00
14705;DHT22;7442;50.840;3.396;2024-03-23T10:09:48;24.50;43.80
14705;DHT22;7442;50.840;3.396;2024-03-23T10:12:20;24.50;43.90
14705;DHT22;7442;50.840;3.396;2024-03-23T10:14:50;24.50;43.60
14705;DHT22;7442;50.840;3.396;2024-03-23T10:17:22;24.40;43.60
14705;DHT22;7442;50.840;3.396;2024-03-23T10:19:57;24.30;43.60
14705;DHT22;7442;50.840;3.396;2024-03-23T10:22:27;24.20;43.70
14705;DHT22;7442;50.840;3.396;2024-03-23T10:25:06;24.20;43.60
14705;DHT22;7442;50.840;3.396;2024-03-23T10:27:32;24.10;43.80
14705;DHT22;7442;50.840;3.396;2024-03-23T10:30:12;24.00;43.70
14705;DHT22;7442;50.840;3.396;2024-03-23T10:32:43;23.90;43.50
14705;DHT22;7442;50.840;3.396;2024-03-23T10:35:17;23.90;43.70
14705;DHT22;7442;50.840;3.396;2024-03-23T10:37:54;23.80;43.70
14705;DHT22;7442;50.840;3.396;2024-03-23T10:40:26;23.80;43.60
14705;DHT22;7442;50.840;3.396;2024-03-23T10:42:58;23.80;43.50
14705;DHT22;7442;50.840;3.396;2024-03-23T10:45:29;23.80;43.60
14705;DHT22;7442;50.840;3.396;2024-03-23T10:47:59;23.80;43.50
14705;DHT22;7442;50.840;3.396;2024-03-23T10:50:29;23.80;43.50
14705;DHT22;7442;50.840;3.396;2024-03-23T10:52:59;23.80;43.00
14705;DHT22;7442;50.840;3.396;2024-03-23T10:55:30;23.80;42.90
14705;DHT22;7442;50.840;3.396;2024-03-23T10:58:02;23.80;43.10
14705;DHT22;7442;50.840;3.396;2024-03-23T11:00:32;23.80;43.10
14705;DHT22;7442;50.840;3.396;2024-03-23T11:03:33;23.80;42.90
14705;DHT22;7442;50.840;3.396;2024-03-23T11:06:06;23.80;42.90
14705;DHT22;7442;50.840;3.396;2024-03-23T11:08:39;23.80;42.70
14705;DHT22;7442;50.840;3.396;2024-03-23T11:13:49;23.80;42.40
14705;DHT22;7442;50.840;3.396;2024-03-23T11:16:26;23.80;42.30
14705;DHT22;7442;50.840;3.396;2024-03-23T11:22:05;23.90;42.10
14705;DHT22;7442;50.840;3.396;2024-03-23T11:24:37;24.00;42.30
14705;DHT22;7442;50.840;3.396;2024-03-23T11:27:15;24.00;42.30
14705;DHT22;7442;50.840;3.396;2024-03-23T11:29:44;24.10;42.40
14705;DHT22;7442;50.840;3.396;2024-03-23T11:32:14;24.20;42.30
14705;DHT22;7442;50.840;3.396;2024-03-23T11:34:44;24.30;43.20
14705;DHT22;7442;50.840;3.396;2024-03-23T11:37:14;24.20;43.20
14705;DHT22;7442;50.840;3.396;2024-03-23T11:39:45;24.20;42.70
14705;DHT22;7442;50.840;3.396;2024-03-23T11:42:17;24.20;43.10
14705;DHT22;7442;50.840;3.396;2024-03-23T11:44:48;24.20;43.10
14705;DHT22;7442;50.840;3.396;2024-03-23T11:47:19;24.20;43.30
14705;DHT22;7442;50.840;3.396;2024-03-23T11:49:50;24.20;43.50
14705;DHT22;7442;50.840;3.396;2024-03-23T11:52:20;24.20;43.60
14705;DHT22;7442;50.840;3.396;2024-03-23T11:54:50;24.20;43.90
14705;DHT22;7442;50.840;3.396;2024-03-23T11:57:20;24.10;44.20
14705;DHT22;7442;50.840;3.396;2024-03-23T11:59:50;24.20;44.60
14705;DHT22;7442;50.840;3.396;2024-03-23T12:02:21;24.20;44.70
14705;DHT22;7442;50.840;3.396;2024-03-23T12:04:51;24.30;44.80
14705;DHT22;7442;50.840;3.396;2024-03-23T12:07:21;24.40;45.50
14705;DHT22;7442;50.840;3.396;2024-03-23T12:10:04;24.40;45.60
14705;DHT22;7442;50.840;3.396;2024-03-23T12:12:36;24.40;45.60
14705;DHT22;7442;50.840;3.396;2024-03-23T12:15:07;24.50;46.10
14705;DHT22;7442;50.840;3.396;2024-03-23T12:17:38;24.50;45.90
14705;DHT22;7442;50.840;3.396;2024-03-23T12:20:08;24.50;45.90
14705;DHT22;7442;50.840;3.396;2024-03-23T12:22:38;24.50;46.10
14705;DHT22;7442;50.840;3.396;2024-03-23T12:25:08;24.50;46.50
14705;DHT22;7442;50.840;3.396;2024-03-23T12:27:38;24.50;46.70
14705;DHT22;7442;50.840;3.396;2024-03-23T12:30:09;24.40;46.80
14705;DHT22;7442;50.840;3.396;2024-03-23T12:32:39;24.40;46.90
14705;DHT22;7442;50.840;3.396;2024-03-23T12:35:09;24.40;47.00
14705;DHT22;7442;50.840;3.396;2024-03-23T12:37:40;24.30;47.10
14705;DHT22;7442;50.840;3.396;2024-03-23T12:40:10;24.30;47.20
14705;DHT22;7442;50.840;3.396;2024-03-23T12:42:41;24.30;47.40
14705;DHT22;7442;50.840;3.396;2024-03-23T12:45:11;24.20;47.50
14705;DHT22;7442;50.840;3.396;2024-03-23T12:47:41;24.20;47.40
14705;DHT22;7442;50.840;3.396;2024-03-23T12:50:11;24.20;46.90
14705;DHT22;7442;50.840;3.396;2024-03-23T12:52:41;24.20;47.10
14705;DHT22;7442;50.840;3.396;2024-03-23T12:55:12;24.20;47.20
14705;DHT22;7442;50.840;3.396;2024-03-23T12:57:42;24.20;47.10
14705;DHT22;7442;50.840;3.396;2024-03-23T13:00:14;24.20;47.20
14705;DHT22;7442;50.840;3.396;2024-03-23T13:02:46;24.10;47.70
14705;DHT22;7442;50.840;3.396;2024-03-23T13:05:16;24.10;47.10
14705;DHT22;7442;50.840;3.396;2024-03-23T13:07:46;24.10;47.00
14705;DHT22;7442;50.840;3.396;2024-03-23T13:10:16;24.10;46.80
14705;DHT22;7442;50.840;3.396;2024-03-23T13:12:46;24.10;46.60
14705;DHT22;7442;50.840;3.396;2024-03-23T13:15:16;24.20;46.70
14705;DHT22;7442;50.840;3.396;2024-03-23T13:17:48;24.20;46.40
14705;DHT22;7442;50.840;3.396;2024-03-23T13:20:19;24.20;46.20
14705;DHT22;7442;50.840;3.396;2024-03-23T13:22:49;24.20;46.10
14705;DHT22;7442;50.840;3.396;2024-03-23T13:25:21;24.20;45.90
14705;DHT22;7442;50.840;3.396;2024-03-23T13:27:51;24.20;46.00
14705;DHT22;7442;50.840;3.396;2024-03-23T13:30:21;24.20;45.90
14705;DHT22;7442;50.840;3.396;2024-03-23T13:32:51;24.20;45.60
14705;DHT22;7442;50.840;3.396;2024-03-23T13:35:21;24.10;46.30
14705;DHT22;7442;50.840;3.396;2024-03-23T13:37:51;24.20;45.90
14705;DHT22;7442;50.840;3.396;2024-03-23T13:40:22;24.30;46.30
14705;DHT22;7442;50.840;3.396;2024-03-23T13:42:52;24.40;46.30
14705;DHT22;7442;50.840;3.396;2024-03-23T13:45:22;24.50;45.80
14705;DHT22;7442;50.840;3.396;2024-03-23T13:47:52;24.50;45.80
14705;DHT22;7442;50.840;3.396;2024-03-23T13:50:22;24.60;45.60
14705;DHT22;7442;50.840;3.396;2024-03-23T13:52:52;24.60;45.80
14705;DHT22;7442;50.840;3.396;2024-03-23T13:55:22;24.50;45.10
14705;DHT22;7442;50.840;3.396;2024-03-23T13:57:52;24.50;45.10
14705;DHT22;7442;50.840;3.396;2024-03-23T14:00:22;24.40;45.00
14705;DHT22;7442;50.840;3.396;2024-03-23T14:02:53;24.50;45.00
14705;DHT22;7442;50.840;3.396;2024-03-23T14:05:23;24.40;44.60
14705;DHT22;7442;50.840;3.396;2024-03-23T14:07:54;24.40;44.50
14705;DHT22;7442;50.840;3.396;2024-03-23T14:10:24;24.30;44.60
14705;DHT22;7442;50.840;3.396;2024-03-23T14:12:54;24.40;44.70
14705;DHT22;7442;50.840;3.396;2024-03-23T14:15:24;24.30;44.80
14705;DHT22;7442;50.840;3.396;2024-03-23T14:17:54;24.30;44.90
14705;DHT22;7442;50.840;3.396;2024-03-23T14:20:24;24.30;44.90
14705;DHT22;7442;50.840;3.396;2024-03-23T14:22:54;24.40;45.10
14705;DHT22;7442;50.840;3.396;2024-03-23T14:25:25;24.40;45.00
14705;DHT22;7442;50.840;3.396;2024-03-23T14:27:57;24.40;45.10
14705;DHT22;7442;50.840;3.396;2024-03-23T14:30:27;24.50;45.70
14705;DHT22;7442;50.840;3.396;2024-03-23T14:32:57;24.40;45.10
14705;DHT22;7442;50.840;3.396;2024-03-23T14:35:27;24.50;45.00
14705;DHT22;7442;50.840;3.396;2024-03-23T14:37:57;24.50;45.10
14705;DHT22;7442;50.840;3.396;2024-03-23T14:40:27;24.50;45.00
14705;DHT22;7442;50.840;3.396;2024-03-23T14:42:57;24.50;45.70
14705;DHT22;7442;50.840;3.396;2024-03-23T14:45:29;24.50;45.10
14705;DHT22;7442;50.840;3.396;2024-03-23T14:47:59;24.60;45.30
14705;DHT22;7442;50.840;3.396;2024-03-23T14:50:29;24.50;45.40
14705;DHT22;7442;50.840;3.396;2024-03-23T14:53:00;24.60;45.60
14705;DHT22;7442;50.840;3.396;2024-03-23T14:55:30;24.60;45.60
14705;DHT22;7442;50.840;3.396;2024-03-23T14:58:01;24.60;45.70
14705;DHT22;7442;50.840;3.396;2024-03-23T15:00:32;24.60;45.80
14705;DHT22;7442;50.840;3.396;2024-03-23T15:03:06;24.60;45.70
14705;DHT22;7442;50.840;3.396;2024-03-23T15:05:36;24.60;46.00
14705;DHT22;7442;50.840;3.396;2024-03-23T15:08:07;24.60;46.00
14705;DHT22;7442;50.840;3.396;2024-03-23T15:10:37;24.60;46.00
14705;DHT22;7442;50.840;3.396;2024-03-23T15:13:08;24.60;46.20
14705;DHT22;7442;50.840;3.396;2024-03-23T15:15:43;24.60;45.60
14705;DHT22;7442;50.840;3.396;2024-03-23T15:18:16;24.60;45.80
14705;DHT22;7442;50.840;3.396;2024-03-23T15:20:53;24.60;46.10
14705;DHT22;7442;50.840;3.396;2024-03-23T15:23:23;24.50;46.00
14705;DHT22;7442;50.840;3.396;2024-03-23T15:26:00;24.50;46.20
14705;DHT22;7442;50.840;3.396;2024-03-23T15:28:31;24.50;46.30
14705;DHT22;7442;50.840;3.396;2024-03-23T15:31:09;24.50;45.70
14705;DHT22;7442;50.840;3.396;2024-03-23T15:33:39;24.50;45.90
14705;DHT22;7442;50.840;3.396;2024-03-23T15:36:11;24.50;45.30
14705;DHT22;7442;50.840;3.396;2024-03-23T15:38:41;24.40;44.90
14705;DHT22;7442;50.840;3.396;2024-03-23T15:41:12;24.40;45.40
14705;DHT22;7442;50.840;3.396;2024-03-23T15:43:43;24.40;45.50
14705;DHT22;7442;50.840;3.396;2024-03-23T15:46:13;24.40;45.70
14705;DHT22;7442;50.840;3.396;2024-03-23T15:48:44;24.40;46.30
14705;DHT22;7442;50.840;3.396;2024-03-23T15:51:16;24.40;45.70
14705;DHT22;7442;50.840;3.396;2024-03-23T15:53:47;24.40;45.80
14705;DHT22;7442;50.840;3.396;2024-03-23T15:56:19;24.40;45.80
14705;DHT22;7442;50.840;3.396;2024-03-23T15:58:50;24.40;45.90
14705;DHT22;7442;50.840;3.396;2024-03-23T16:01:21;24.40;46.00
14705;DHT22;7442;50.840;3.396;2024-03-23T16:03:51;24.40;46.10
14705;DHT22;7442;50.840;3.396;2024-03-23T16:06:21;24.40;46.10
14705;DHT22;7442;50.840;3.396;2024-03-23T16:08:51;24.30;46.20
14705;DHT22;7442;50.840;3.396;2024-03-23T16:11:21;24.30;46.10
14705;DHT22;7442;50.840;3.396;2024-03-23T16:13:51;24.20;46.00
14705;DHT22;7442;50.840;3.396;2024-03-23T16:16:21;24.20;46.00
14705;DHT22;7442;50.840;3.396;2024-03-23T16:18:53;24.20;46.10
14705;DHT22;7442;50.840;3.396;2024-03-23T16:21:23;24.20;46.10
14705;DHT22;7442;50.840;3.396;2024-03-23T16:23:53;24.20;46.20
14705;DHT22;7442;50.840;3.396;2024-03-23T16:26:24;24.20;46.20
14705;DHT22;7442;50.840;3.396;2024-03-23T16:28:54;24.20;46.30
14705;DHT22;7442;50.840;3.396;2024-03-23T16:31:24;24.20;46.90
14705;DHT22;7442;50.840;3.396;2024-03-23T16:33:54;24.20;46.40
14705;DHT22;7442;50.840;3.396;2024-03-23T16:36:24;24.20;46.50
14705;DHT22;7442;50.840;3.396;2024-03-23T16:38:55;24.20;46.70
14705;DHT22;7442;50.840;3.396;2024-03-23T16:41:25;24.10;46.70
14705;DHT22;7442;50.840;3.396;2024-03-23T16:43:56;24.10;46.60
14705;DHT22;7442;50.840;3.396;2024-03-23T16:46:26;24.10;46.80
14705;DHT22;7442;50.840;3.396;2024-03-23T16:48:56;24.10;47.00
14705;DHT22;7442;50.840;3.396;2024-03-23T16:51:26;24.20;47.30
14705;DHT22;7442;50.840;3.396;2024-03-23T16:54:02;24.20;47.10
14705;DHT22;7442;50.840;3.396;2024-03-23T16:56:39;24.20;47.10
14705;DHT22;7442;50.840;3.396;2024-03-23T16:59:09;24.30;47.30
14705;DHT22;7442;50.840;3.396;2024-03-23T17:01:40;24.30;48.00
14705;DHT22;7442;50.840;3.396;2024-03-23T17:04:11;24.30;47.40
14705;DHT22;7442;50.840;3.396;2024-03-23T17:06:41;24.30;47.70